createdAt,value
2022-11-19T00:00:35.465Z,16.40
2022-11-19T00:03:23.356Z,15.80
2022-11-19T00:05:51.523Z,17.50
2022-11-19T00:08:39.097Z,16.90
2022-11-19T00:11:11.107Z,17.70
2022-11-19T00:13:58.055Z,16.90
2022-11-19T00:16:25.995Z,15.60
2022-11-19T00:19:00.105Z,15.50
2022-11-19T00:21:29.833Z,16.60
2022-11-19T00:23:57.924Z,15.40
2022-11-19T00:26:26.058Z,15.70
2022-11-19T00:28:54.981Z,15.40
2022-11-19T00:31:23.186Z,14.70
2022-11-19T00:33:51.251Z,14.80
2022-11-19T00:36:19.436Z,15.80
2022-11-19T00:38:47.466Z,15.70
2022-11-19T00:41:15.761Z,15.70
2022-11-19T00:43:50.305Z,16.10
2022-11-19T00:46:21.398Z,14.20
2022-11-19T00:48:51.859Z,14.20
2022-11-19T00:51:22.220Z,13.20
2022-11-19T00:53:51.023Z,13.10
2022-11-19T00:56:22.106Z,13.90
2022-11-19T00:58:51.095Z,13.10
2022-11-19T01:01:22.611Z,12.70
2022-11-19T01:03:51.316Z,13.90
2022-11-19T01:06:22.079Z,13.70
2022-11-19T01:08:51.956Z,13.70
2022-11-19T01:11:23.917Z,14.40
2022-11-19T01:13:52.182Z,14.90
2022-11-19T01:16:23.838Z,13.60
2022-11-19T01:18:52.910Z,14.80
2022-11-19T01:21:23.652Z,13.90
2022-11-19T01:23:51.700Z,13.50
2022-11-19T01:26:20.639Z,13.20
2022-11-19T01:28:49.316Z,13.70
2022-11-19T01:31:27.157Z,14.20
2022-11-19T01:33:55.766Z,14.50
2022-11-19T01:36:29.339Z,14.90
2022-11-19T01:38:57.776Z,16.50
2022-11-19T01:41:32.193Z,16.70
2022-11-19T01:44:06.187Z,17.60
2022-11-19T01:46:37.757Z,18.00
2022-11-19T01:49:17.389Z,18.10
2022-11-19T01:52:01.081Z,17.20
2022-11-19T01:54:55.555Z,14.50
2022-11-19T01:57:23.797Z,14.50
2022-11-19T01:59:52.906Z,14.30
2022-11-19T02:02:23.932Z,13.70
2022-11-19T02:04:57.977Z,13.70
2022-11-19T02:07:29.667Z,13.80
2022-11-19T02:10:12.437Z,13.80
2022-11-19T02:13:05.922Z,16.50
2022-11-19T02:15:57.307Z,16.40
2022-11-19T02:18:44.054Z,15.90
2022-11-19T02:21:30.252Z,16.70
2022-11-19T02:24:15.337Z,15.80
2022-11-19T02:27:05.156Z,15.30
2022-11-19T02:30:13.569Z,15.40
2022-11-19T02:32:50.688Z,15.90
2022-11-19T02:35:40.441Z,14.60
2022-11-19T02:38:33.337Z,14.80
2022-11-19T02:41:39.006Z,14.00
2022-11-19T02:44:30.869Z,13.50
2022-11-19T02:47:03.696Z,14.20
2022-11-19T02:49:37.286Z,13.80
2022-11-19T02:52:05.862Z,13.50
2022-11-19T02:54:33.840Z,13.90
2022-11-19T02:57:03.035Z,14.40
2022-11-19T03:00:16.764Z,15.00
2022-11-19T03:03:27.718Z,14.70
2022-11-19T03:06:18.861Z,15.00
2022-11-19T03:08:47.940Z,15.10
2022-11-19T03:11:26.787Z,17.10
2022-11-19T03:14:22.524Z,16.60
2022-11-19T03:16:59.255Z,17.50
2022-11-19T03:19:33.167Z,17.40
2022-11-19T03:22:30.947Z,16.80
2022-11-19T03:25:09.251Z,16.80
2022-11-19T03:27:54.376Z,16.80
2022-11-19T03:30:22.831Z,16.40
2022-11-19T03:32:57.371Z,16.40
2022-11-19T03:35:55.271Z,16.70
2022-11-19T03:38:36.509Z,16.00
2022-11-19T03:41:06.827Z,16.40
2022-11-19T03:43:39.539Z,16.90
2022-11-19T03:46:14.522Z,16.30
2022-11-19T03:48:48.036Z,17.20
2022-11-19T03:51:24.797Z,17.10
2022-11-19T03:53:53.559Z,18.20
2022-11-19T03:56:30.746Z,17.20
2022-11-19T03:58:59.391Z,17.00
2022-11-19T04:01:27.483Z,18.10
2022-11-19T04:04:14.373Z,17.30
2022-11-19T04:06:42.286Z,17.90
2022-11-19T04:09:10.438Z,18.20
2022-11-19T04:11:38.542Z,17.70
2022-11-19T04:14:06.818Z,18.70
2022-11-19T04:16:35.178Z,18.20
2022-11-19T04:19:03.303Z,17.70
2022-11-19T04:21:31.325Z,18.80
2022-11-19T04:23:59.602Z,19.10
2022-11-19T04:26:27.617Z,18.50
2022-11-19T04:28:55.742Z,17.90
2022-11-19T04:31:23.883Z,18.90
2022-11-19T04:33:52.217Z,18.70
2022-11-19T04:36:20.678Z,18.50
2022-11-19T04:38:48.940Z,17.90
2022-11-19T04:41:17.055Z,18.90
2022-11-19T04:43:45.096Z,18.70
2022-11-19T04:46:13.139Z,19.10
2022-11-19T04:48:41.326Z,19.90
2022-11-19T04:51:09.408Z,18.60
2022-11-19T04:53:38.859Z,18.60
2022-11-19T04:56:07.956Z,19.40
2022-11-19T04:58:39.196Z,19.10
2022-11-19T05:01:08.159Z,19.40
2022-11-19T05:03:36.452Z,19.60
2022-11-19T05:06:04.891Z,19.70
2022-11-19T05:08:32.924Z,19.50
2022-11-19T05:11:01.066Z,20.50
2022-11-19T05:13:29.531Z,20.90
2022-11-19T05:15:57.692Z,20.00
2022-11-19T05:18:25.785Z,20.50
2022-11-19T05:20:53.980Z,21.40
2022-11-19T05:23:22.053Z,20.40
2022-11-19T05:25:50.123Z,19.90
2022-11-19T05:28:18.544Z,19.90
2022-11-19T05:30:46.742Z,20.80
2022-11-19T05:33:14.810Z,19.50
2022-11-19T05:35:42.899Z,19.50
2022-11-19T05:38:11.043Z,19.60
2022-11-19T05:40:39.252Z,20.00
2022-11-19T05:43:07.807Z,19.40
2022-11-19T05:45:36.297Z,20.20
2022-11-19T05:48:04.896Z,19.90
2022-11-19T05:50:33.035Z,20.90
2022-11-19T05:53:01.221Z,21.00
2022-11-19T05:55:29.349Z,22.30
2022-11-19T05:57:57.475Z,20.90
2022-11-19T06:00:25.829Z,22.20
2022-11-19T06:02:53.820Z,22.40
2022-11-19T06:05:21.948Z,21.50
2022-11-19T06:07:50.075Z,21.70
2022-11-19T06:10:18.058Z,21.50
2022-11-19T06:12:47.058Z,21.80
2022-11-19T06:15:15.378Z,22.20
2022-11-19T06:17:43.336Z,21.10
2022-11-19T06:20:11.555Z,20.50
2022-11-19T06:22:40.213Z,21.50
2022-11-19T06:25:08.897Z,22.00
2022-11-19T06:27:36.986Z,21.40
2022-11-19T06:30:07.868Z,22.00
2022-11-19T06:32:36.079Z,22.10
2022-11-19T06:35:04.854Z,22.20
2022-11-19T06:37:33.017Z,21.20
2022-11-19T06:40:01.055Z,21.10
2022-11-19T06:42:38.486Z,21.00
2022-11-19T06:45:10.606Z,21.60
2022-11-19T06:47:41.229Z,21.20
2022-11-19T06:50:11.051Z,21.90
2022-11-19T06:52:39.205Z,21.40
2022-11-19T06:55:07.539Z,22.10
2022-11-19T06:57:36.186Z,21.40
2022-11-19T07:00:05.230Z,21.40
2022-11-19T07:02:36.650Z,20.60
2022-11-19T07:05:06.236Z,20.40
2022-11-19T07:07:35.277Z,21.80
2022-11-19T07:10:03.780Z,21.60
2022-11-19T07:12:32.058Z,22.30
2022-11-19T07:15:04.241Z,21.30
2022-11-19T07:17:33.321Z,21.40
2022-11-19T07:20:02.231Z,21.90
2022-11-19T07:22:30.286Z,22.40
2022-11-19T07:24:58.388Z,20.70
2022-11-19T07:27:26.427Z,21.80
2022-11-19T07:29:54.430Z,21.00
2022-11-19T07:32:22.850Z,21.80
2022-11-19T07:34:50.946Z,22.00
2022-11-19T07:37:19.320Z,21.50
2022-11-19T07:39:47.460Z,21.60
2022-11-19T07:42:34.075Z,22.00
2022-11-19T07:45:03.279Z,22.40
2022-11-19T07:47:33.314Z,23.10
2022-11-19T07:50:01.978Z,21.40
2022-11-19T07:52:31.006Z,21.80
2022-11-19T07:54:59.216Z,22.30
2022-11-19T07:57:30.242Z,22.00
2022-11-19T07:59:59.473Z,22.20
2022-11-19T08:02:27.681Z,21.80
2022-11-19T08:04:55.777Z,29.10
2022-11-19T08:07:24.099Z,23.90
2022-11-19T08:09:52.314Z,24.20
2022-11-19T08:12:20.462Z,25.10
2022-11-19T08:14:48.481Z,23.50
2022-11-19T08:17:35.665Z,23.30
2022-11-19T08:20:08.234Z,22.30
2022-11-19T08:22:37.298Z,22.10
2022-11-19T08:25:06.536Z,23.00
2022-11-19T08:27:35.137Z,22.20
2022-11-19T08:30:03.640Z,22.70
2022-11-19T08:32:31.803Z,22.30
2022-11-19T08:35:00.064Z,21.70
2022-11-19T08:37:28.083Z,20.80
2022-11-19T08:39:56.318Z,20.70
2022-11-19T08:42:45.074Z,21.40
2022-11-19T08:45:16.826Z,20.70
2022-11-19T08:47:49.174Z,20.20
2022-11-19T08:50:17.902Z,22.30
2022-11-19T08:52:46.128Z,22.60
2022-11-19T08:55:14.290Z,21.60
2022-11-19T08:57:42.215Z,21.00
2022-11-19T09:00:10.921Z,22.80
2022-11-19T09:02:39.095Z,23.40
2022-11-19T09:05:14.418Z,22.50
2022-11-19T09:07:43.049Z,24.50
2022-11-19T09:10:11.213Z,23.80
2022-11-19T09:12:39.337Z,23.40
2022-11-19T09:15:09.019Z,28.80
2022-11-19T09:17:38.452Z,23.40
2022-11-19T09:20:09.069Z,23.80
2022-11-19T09:22:37.548Z,24.20
2022-11-19T09:25:06.576Z,25.60
2022-11-19T09:27:34.729Z,26.10
2022-11-19T09:30:04.221Z,31.70
2022-11-19T09:32:33.725Z,27.80
2022-11-19T09:35:02.412Z,26.10
2022-11-19T09:37:34.241Z,27.10
2022-11-19T09:40:04.797Z,26.40
2022-11-19T09:43:03.918Z,27.20
2022-11-19T09:46:10.731Z,25.60
2022-11-19T09:48:39.458Z,27.80
2022-11-19T09:51:15.245Z,26.90
2022-11-19T09:54:02.936Z,27.20
2022-11-19T09:56:43.176Z,26.50
2022-11-19T09:59:33.521Z,25.90
2022-11-19T10:02:02.321Z,26.90
2022-11-19T10:04:33.878Z,26.60
2022-11-19T10:07:45.076Z,30.50
2022-11-19T10:10:28.358Z,22.90
2022-11-19T10:13:15.575Z,24.20
2022-11-19T10:16:02.237Z,25.60
2022-11-19T10:18:49.300Z,23.40
2022-11-19T10:21:17.456Z,22.50
2022-11-19T10:24:00.992Z,21.60
2022-11-19T10:26:39.743Z,21.60
2022-11-19T10:29:22.798Z,20.10
2022-11-19T10:31:52.292Z,20.60
2022-11-19T10:34:29.616Z,20.60
2022-11-19T10:37:03.639Z,18.60
2022-11-19T10:39:38.650Z,17.60
2022-11-19T10:42:24.059Z,18.30
2022-11-19T10:44:59.298Z,19.00
2022-11-19T10:47:42.150Z,19.30
2022-11-19T10:50:22.350Z,18.60
2022-11-19T10:52:58.302Z,18.20
2022-11-19T10:55:38.226Z,16.80
2022-11-19T10:58:27.268Z,18.00
2022-11-19T11:00:58.520Z,17.50
2022-11-19T11:03:33.579Z,17.90
2022-11-19T11:06:10.150Z,16.60
2022-11-19T11:09:00.283Z,16.90
2022-11-19T11:11:52.059Z,16.00
2022-11-19T11:14:41.494Z,16.30
2022-11-19T11:17:20.195Z,16.40
2022-11-19T11:20:21.821Z,16.40
2022-11-19T11:23:03.104Z,15.40
2022-11-19T11:25:31.484Z,13.70
2022-11-19T11:28:17.039Z,14.10
2022-11-19T11:30:58.651Z,14.20
2022-11-19T11:33:41.776Z,14.60
2022-11-19T11:36:23.033Z,14.40
2022-11-19T11:38:55.417Z,13.70
2022-11-19T11:44:32.015Z,14.10
2022-11-19T11:47:12.862Z,14.80
2022-11-19T11:49:44.864Z,15.50
2022-11-19T11:52:12.846Z,14.90
2022-11-19T11:55:13.107Z,16.00
2022-11-19T11:57:56.070Z,15.10
2022-11-19T12:00:30.614Z,15.40
2022-11-19T12:03:01.876Z,15.90
2022-11-19T12:05:40.977Z,15.90
2022-11-19T12:08:27.756Z,17.00
2022-11-19T12:11:15.835Z,16.30
2022-11-19T12:13:59.202Z,17.00
2022-11-19T12:16:39.853Z,16.00
2022-11-19T12:19:43.106Z,15.90
2022-11-19T12:22:42.911Z,14.80
2022-11-19T12:25:21.848Z,15.70
2022-11-19T12:28:21.499Z,15.30
2022-11-19T12:30:56.719Z,13.80
2022-11-19T12:34:15.164Z,14.40
2022-11-19T12:36:52.056Z,14.80
2022-11-19T12:39:41.679Z,14.70
2022-11-19T12:42:28.107Z,15.10
2022-11-19T12:45:36.675Z,14.00
2022-11-19T12:48:26.270Z,11.20
2022-11-19T12:51:00.131Z,14.20
2022-11-19T12:54:07.185Z,13.70
2022-11-19T12:56:47.315Z,13.90
2022-11-19T12:59:37.619Z,13.30
2022-11-19T13:02:35.658Z,13.70
2022-11-19T13:05:19.031Z,15.20
2022-11-19T13:07:56.905Z,13.80
2022-11-19T13:10:42.692Z,13.00
2022-11-19T13:13:16.847Z,12.90
2022-11-19T13:16:29.525Z,13.60
2022-11-19T13:19:15.279Z,13.20
2022-11-19T13:21:54.278Z,12.80
2022-11-19T13:24:28.268Z,12.50
2022-11-19T13:27:01.396Z,13.20
2022-11-19T13:30:05.731Z,13.10
2022-11-19T13:33:08.276Z,13.50
2022-11-19T13:35:48.199Z,12.40
2022-11-19T13:38:32.357Z,12.70
2022-11-19T13:41:09.626Z,10.80
2022-11-19T13:43:56.509Z,13.20
2022-11-19T13:46:39.434Z,11.90
2022-11-19T13:49:15.522Z,10.80
2022-11-19T13:51:53.012Z,11.10
2022-11-19T13:54:35.300Z,11.00
2022-11-19T13:57:06.129Z,10.70
2022-11-19T13:59:34.519Z,10.20
2022-11-19T14:02:05.195Z,10.90
2022-11-19T14:05:02.898Z,12.00
2022-11-19T14:07:31.541Z,12.50
2022-11-19T14:10:13.565Z,14.60
2022-11-19T14:12:56.758Z,14.20
2022-11-19T14:16:07.807Z,14.90
2022-11-19T14:19:00.005Z,16.50
2022-11-19T14:21:46.909Z,15.20
2022-11-19T14:25:06.336Z,14.60
2022-11-19T14:27:35.253Z,14.90
2022-11-19T14:30:18.340Z,15.00
2022-11-19T14:32:52.667Z,14.30
2022-11-19T14:35:23.635Z,15.00
2022-11-19T14:37:55.076Z,15.40
2022-11-19T14:40:29.831Z,16.60
2022-11-19T14:43:19.487Z,15.70
2022-11-19T14:46:13.696Z,15.00
2022-11-19T14:48:42.054Z,14.80
2022-11-19T14:51:16.976Z,15.10
2022-11-19T14:54:09.836Z,15.50
2022-11-19T14:56:38.651Z,16.20
2022-11-19T14:59:15.857Z,18.00
2022-11-19T15:01:53.136Z,16.80
2022-11-19T15:04:24.677Z,17.80
2022-11-19T15:06:53.021Z,19.20
2022-11-19T15:09:52.168Z,17.70
2022-11-19T15:12:21.616Z,18.40
2022-11-19T15:15:05.230Z,17.90
2022-11-19T15:17:35.652Z,17.60
2022-11-19T15:20:36.440Z,17.20
2022-11-19T15:23:07.227Z,17.80
2022-11-19T15:26:01.256Z,18.20
2022-11-19T15:28:47.605Z,18.10
2022-11-19T15:31:37.555Z,19.20
2022-11-19T15:34:48.768Z,20.10
2022-11-19T15:37:34.144Z,19.60
2022-11-19T15:40:03.518Z,21.50
2022-11-19T15:42:39.018Z,22.30
2022-11-19T15:45:20.727Z,23.90
2022-11-19T15:48:14.808Z,25.80
2022-11-19T15:50:44.297Z,24.30
2022-11-19T15:53:15.074Z,26.10
2022-11-19T15:56:08.372Z,26.20
2022-11-19T15:58:45.323Z,33.00
2022-11-19T16:01:20.690Z,36.20
2022-11-19T16:03:52.215Z,27.40
2022-11-19T16:06:24.460Z,31.30
2022-11-19T16:08:56.063Z,29.30
2022-11-19T16:11:47.817Z,28.30
2022-11-19T16:14:42.404Z,31.90
2022-11-19T16:17:30.445Z,32.70
2022-11-19T16:20:10.896Z,32.70
2022-11-19T16:22:50.986Z,32.50
2022-11-19T16:25:35.787Z,31.70
2022-11-19T16:28:13.839Z,31.50
2022-11-19T16:30:46.697Z,31.10
2022-11-19T16:33:21.754Z,28.80
2022-11-19T16:35:53.561Z,30.20
2022-11-19T16:38:31.319Z,31.50
2022-11-19T16:41:34.876Z,31.80
2022-11-19T16:44:12.835Z,33.30
2022-11-19T16:46:41.386Z,34.00
2022-11-19T16:49:31.214Z,33.40
2022-11-19T16:51:59.924Z,34.10
2022-11-19T16:54:49.556Z,34.20
2022-11-19T16:57:21.089Z,37.10
2022-11-19T17:00:20.010Z,37.80
2022-11-19T17:02:49.001Z,42.40
2022-11-19T17:05:23.433Z,43.00
2022-11-19T17:08:05.216Z,46.60
2022-11-19T17:10:34.822Z,46.90
2022-11-19T17:13:29.079Z,45.60
2022-11-19T17:16:18.550Z,46.40
2022-11-19T17:18:46.740Z,44.10
2022-11-19T17:21:28.981Z,46.70
2022-11-19T17:23:57.400Z,46.90
2022-11-19T17:26:27.766Z,48.20
2022-11-19T17:29:11.520Z,49.10
2022-11-19T17:31:48.603Z,52.30
2022-11-19T17:34:46.384Z,52.50
2022-11-19T17:37:15.219Z,52.10
2022-11-19T17:39:43.365Z,54.20
2022-11-19T17:42:30.086Z,51.20
2022-11-19T17:44:59.846Z,50.10
2022-11-19T17:47:28.152Z,46.90
2022-11-19T17:49:56.544Z,47.60
2022-11-19T17:52:27.876Z,48.00
2022-11-19T17:54:59.013Z,49.10
2022-11-19T17:57:27.122Z,49.80
2022-11-19T17:59:55.159Z,51.00
2022-11-19T18:02:23.492Z,49.40
2022-11-19T18:04:52.373Z,51.20
2022-11-19T18:07:20.467Z,56.00
2022-11-19T18:09:48.726Z,54.10
2022-11-19T18:12:18.980Z,53.60
2022-11-19T18:14:47.678Z,56.00
2022-11-19T18:17:16.039Z,53.70
2022-11-19T18:19:44.333Z,55.50
2022-11-19T18:22:18.946Z,54.40
2022-11-19T18:24:52.105Z,55.00
2022-11-19T18:27:20.329Z,54.00
2022-11-19T18:29:48.470Z,55.50
2022-11-19T18:32:17.249Z,53.70
2022-11-19T18:34:46.309Z,56.20
2022-11-19T18:37:14.556Z,54.20
2022-11-19T18:39:42.691Z,54.40
2022-11-19T18:42:12.901Z,52.70
2022-11-19T18:44:43.781Z,52.20
2022-11-19T18:47:15.556Z,52.50
2022-11-19T18:49:43.841Z,51.40
2022-11-19T18:52:16.200Z,51.90
2022-11-19T18:54:44.892Z,50.00
2022-11-19T18:57:14.001Z,50.60
2022-11-19T18:59:41.997Z,51.00
2022-11-19T19:02:11.169Z,52.30
2022-11-19T19:04:39.490Z,52.90
2022-11-19T19:07:07.786Z,50.00
2022-11-19T19:09:37.652Z,48.90
2022-11-19T19:12:18.630Z,49.50
2022-11-19T19:14:49.331Z,50.30
2022-11-19T19:17:17.806Z,48.50
2022-11-19T19:19:47.751Z,50.10
2022-11-19T19:22:15.996Z,47.70
2022-11-19T19:24:44.577Z,47.00
2022-11-19T19:27:12.711Z,47.90
2022-11-19T19:29:41.619Z,49.70
2022-11-19T19:32:10.072Z,48.20
2022-11-19T19:34:38.301Z,49.80
2022-11-19T19:37:06.701Z,49.30
2022-11-19T19:39:34.859Z,49.40
2022-11-19T19:42:03.082Z,50.50
2022-11-19T19:44:31.252Z,49.60
2022-11-19T19:46:59.736Z,49.70
2022-11-19T19:49:28.046Z,49.50
2022-11-19T19:51:56.321Z,49.10
2022-11-19T19:54:24.602Z,48.80
2022-11-19T19:56:53.476Z,47.90
2022-11-19T19:59:21.749Z,48.60
2022-11-19T20:01:51.854Z,49.80
2022-11-19T20:04:20.201Z,47.80
2022-11-19T20:06:48.641Z,48.40
2022-11-19T20:09:17.183Z,46.90
2022-11-19T20:11:45.576Z,47.90
2022-11-19T20:14:13.783Z,49.80
2022-11-19T20:16:42.177Z,46.70
2022-11-19T20:19:15.192Z,47.80
2022-11-19T20:21:43.772Z,47.20
2022-11-19T20:24:13.748Z,48.10
2022-11-19T20:26:43.193Z,49.60
2022-11-19T20:29:14.273Z,45.80
2022-11-19T20:31:47.235Z,46.30
2022-11-19T20:34:17.049Z,47.00
2022-11-19T20:36:46.777Z,48.30
2022-11-19T20:39:15.460Z,49.00
2022-11-19T20:42:02.233Z,49.00
2022-11-19T20:44:30.645Z,48.60
2022-11-19T20:47:04.101Z,48.60
2022-11-19T20:49:35.309Z,44.90
2022-11-19T20:52:03.996Z,46.40
2022-11-19T20:54:34.533Z,45.10
2022-11-19T20:57:02.988Z,45.40
2022-11-19T20:59:31.221Z,45.60
2022-11-19T21:01:59.653Z,46.70
2022-11-19T21:04:36.661Z,47.70
2022-11-19T21:07:05.538Z,48.50
2022-11-19T21:09:33.976Z,48.60
2022-11-19T21:12:02.550Z,46.40
2022-11-19T21:14:30.825Z,46.90
2022-11-19T21:16:59.116Z,45.90
2022-11-19T21:19:27.323Z,47.10
2022-11-19T21:21:55.576Z,45.60
2022-11-19T21:24:23.801Z,47.20
2022-11-19T21:26:52.310Z,48.80
2022-11-19T21:29:20.797Z,48.40
2022-11-19T21:31:49.520Z,46.80
2022-11-19T21:34:20.827Z,47.90
2022-11-19T21:36:49.942Z,45.90
2022-11-19T21:39:19.943Z,46.20
2022-11-19T21:41:48.956Z,44.90
2022-11-19T21:44:21.483Z,45.50
2022-11-19T21:46:50.431Z,44.30
2022-11-19T21:49:19.059Z,45.50
2022-11-19T21:51:47.696Z,46.30
2022-11-19T21:54:16.173Z,44.70
2022-11-19T21:56:44.587Z,48.50
2022-11-19T21:59:13.403Z,46.90
2022-11-19T22:01:41.763Z,46.90
2022-11-19T22:04:14.362Z,49.00
2022-11-19T22:06:42.553Z,50.70
2022-11-19T22:09:10.773Z,50.20
2022-11-19T22:11:39.186Z,53.00
2022-11-19T22:14:09.405Z,52.20
2022-11-19T22:16:39.382Z,50.20
2022-11-19T22:19:08.054Z,50.50
2022-11-19T22:21:36.476Z,52.00
2022-11-19T22:24:05.377Z,51.20
2022-11-19T22:26:33.438Z,50.80
2022-11-19T22:29:01.555Z,52.20
2022-11-19T22:31:29.739Z,50.80
2022-11-19T22:33:57.696Z,52.00
2022-11-19T22:36:25.798Z,51.00
2022-11-19T22:38:53.958Z,51.70
2022-11-19T22:41:22.980Z,51.10
2022-11-19T22:43:51.417Z,48.40
2022-11-19T22:46:20.305Z,48.20
2022-11-19T22:48:48.736Z,48.60
2022-11-19T22:51:20.801Z,47.80
2022-11-19T22:53:51.068Z,48.30
2022-11-19T22:56:25.357Z,46.80
2022-11-19T22:58:54.046Z,46.70
2022-11-19T23:01:28.949Z,46.20
2022-11-19T23:03:59.528Z,45.60
2022-11-19T23:06:27.989Z,44.30
2022-11-19T23:08:56.922Z,43.50
2022-11-19T23:11:44.060Z,44.90
2022-11-19T23:14:15.937Z,44.80
2022-11-19T23:16:44.873Z,43.40
2022-11-19T23:19:14.254Z,44.70
2022-11-19T23:21:42.655Z,44.00
2022-11-19T23:24:11.785Z,44.00
2022-11-19T23:26:40.254Z,45.60
2022-11-19T23:29:09.390Z,44.50
2022-11-19T23:31:40.661Z,43.40
2022-11-19T23:34:08.936Z,43.70
2022-11-19T23:36:39.911Z,43.40
2022-11-19T23:39:15.249Z,43.60
2022-11-19T23:41:44.166Z,42.40
2022-11-19T23:44:12.608Z,44.40
2022-11-19T23:46:41.133Z,43.70
2022-11-19T23:49:11.051Z,41.30
2022-11-19T23:51:40.270Z,42.60
2022-11-19T23:54:08.562Z,42.00
2022-11-19T23:56:37.182Z,43.70
2022-11-19T23:59:06.206Z,41.90
